createdAt,value
2017-08-13T00:01:04.168Z,87.76
2017-08-13T00:03:33.382Z,87.77
2017-08-13T00:06:01.754Z,87.47
2017-08-13T00:08:30.093Z,87.55
2017-08-13T00:10:58.745Z,87.58
2017-08-13T00:13:27.075Z,87.56
2017-08-13T00:15:55.393Z,87.81
2017-08-13T00:18:23.735Z,87.88
2017-08-13T00:20:52.071Z,88.03
2017-08-13T00:23:20.408Z,88.15
2017-08-13T00:25:48.730Z,87.99
2017-08-13T00:28:17.338Z,87.79
2017-08-13T00:30:45.676Z,87.85
2017-08-13T00:33:14.045Z,87.98
2017-08-13T00:35:43.160Z,87.76
2017-08-13T00:38:11.493Z,88.00
2017-08-13T00:40:39.835Z,87.91
2017-08-13T00:43:08.161Z,88.24
2017-08-13T00:45:37.267Z,88.32
2017-08-13T00:48:05.631Z,88.15
2017-08-13T00:50:33.971Z,88.54
2017-08-13T00:53:02.325Z,88.34
2017-08-13T00:55:30.657Z,88.22
2017-08-13T00:57:59.101Z,88.15
2017-08-13T01:00:27.439Z,88.42
2017-08-13T01:02:55.855Z,88.26
2017-08-13T01:05:24.215Z,88.14
2017-08-13T01:07:52.564Z,88.01
2017-08-13T01:10:21.212Z,88.33
2017-08-13T01:12:49.551Z,88.30
2017-08-13T01:15:17.868Z,88.44
2017-08-13T01:17:46.218Z,88.76
2017-08-13T01:20:14.545Z,88.74
2017-08-13T01:22:43.142Z,88.97
2017-08-13T01:25:11.482Z,88.89
2017-08-13T01:27:39.814Z,89.16
2017-08-13T01:30:08.351Z,88.95
2017-08-13T01:32:36.716Z,88.61
2017-08-13T01:35:05.073Z,88.85
2017-08-13T01:37:34.179Z,88.88
2017-08-13T01:40:02.531Z,89.42
2017-08-13T01:42:30.889Z,89.60
2017-08-13T01:44:59.224Z,89.54
2017-08-13T01:47:28.062Z,90.04
2017-08-13T01:49:56.412Z,90.22
2017-08-13T01:52:24.739Z,90.21
2017-08-13T01:54:53.075Z,89.73
2017-08-13T01:57:21.419Z,89.62
2017-08-13T01:59:50.786Z,90.10
2017-08-13T02:02:19.124Z,90.00
2017-08-13T02:04:47.478Z,89.70
2017-08-13T02:07:16.599Z,90.19
2017-08-13T02:09:44.936Z,90.32
2017-08-13T02:12:13.297Z,90.55
2017-08-13T02:14:41.660Z,90.24
2017-08-13T02:17:10.001Z,90.59
2017-08-13T02:19:39.168Z,90.58
2017-08-13T02:22:07.510Z,90.81
2017-08-13T02:24:35.858Z,90.43
2017-08-13T02:27:04.204Z,90.08
2017-08-13T02:29:32.544Z,89.92
2017-08-13T02:32:00.893Z,90.25
2017-08-13T02:34:30.519Z,90.04
2017-08-13T02:36:58.890Z,89.87
2017-08-13T02:39:27.223Z,89.82
2017-08-13T02:41:55.973Z,89.97
2017-08-13T02:44:24.349Z,90.52
2017-08-13T02:46:52.698Z,90.40
2017-08-13T02:49:21.807Z,90.26
2017-08-13T02:51:50.150Z,90.84
2017-08-13T02:54:18.908Z,90.82
2017-08-13T02:56:47.247Z,90.88
2017-08-13T02:59:15.574Z,91.23
2017-08-13T03:01:43.916Z,91.22
2017-08-13T03:04:13.024Z,90.93
2017-08-13T03:06:41.377Z,90.95
2017-08-13T03:09:09.712Z,91.19
2017-08-13T03:11:38.455Z,91.61
2017-08-13T03:14:06.798Z,91.85
2017-08-13T03:16:35.133Z,91.73
2017-08-13T03:19:03.484Z,91.98
2017-08-13T03:21:32.594Z,92.05
2017-08-13T03:24:00.986Z,92.40
2017-08-13T03:26:29.312Z,92.61
2017-08-13T03:28:58.035Z,92.45
2017-08-13T03:31:26.367Z,92.10
2017-08-13T03:33:54.693Z,92.25
2017-08-13T03:36:23.805Z,92.29
2017-08-13T03:38:52.134Z,92.11
2017-08-13T03:41:20.523Z,92.05
2017-08-13T03:43:48.874Z,91.89
2017-08-13T03:46:17.255Z,92.14
2017-08-13T03:48:45.607Z,92.38
2017-08-13T03:51:13.954Z,92.43
2017-08-13T03:53:42.301Z,92.26
2017-08-13T03:56:10.637Z,91.91
2017-08-13T03:58:38.985Z,91.73
2017-08-13T04:01:07.312Z,92.01
2017-08-13T04:03:35.634Z,92.07
2017-08-13T04:06:03.979Z,91.85
2017-08-13T04:08:32.338Z,92.55
2017-08-13T04:11:00.696Z,92.57
2017-08-13T04:13:29.034Z,92.49
2017-08-13T04:15:57.876Z,92.49
2017-08-13T04:18:26.215Z,92.55
2017-08-13T04:20:54.539Z,92.73
2017-08-13T04:23:23.652Z,92.63
2017-08-13T04:25:51.975Z,92.52
2017-08-13T04:28:20.328Z,92.58
2017-08-13T04:30:48.673Z,92.37
2017-08-13T04:33:17.447Z,92.86
2017-08-13T04:35:45.766Z,92.71
2017-08-13T04:38:14.110Z,92.77
2017-08-13T04:40:42.486Z,93.29
2017-08-13T04:43:10.806Z,93.69
2017-08-13T04:45:39.572Z,93.64
2017-08-13T04:48:08.675Z,93.44
2017-08-13T04:50:37.336Z,93.42
2017-08-13T04:53:05.678Z,93.18
2017-08-13T04:55:34.033Z,93.34
2017-08-13T04:58:02.382Z,93.51
2017-08-13T05:00:31.554Z,93.41
2017-08-13T05:02:59.910Z,93.29
2017-08-13T05:05:28.243Z,93.31
2017-08-13T05:07:56.931Z,93.03
2017-08-13T05:10:25.258Z,93.30
2017-08-13T05:12:53.608Z,93.16
2017-08-13T05:15:21.982Z,92.95
2017-08-13T05:17:50.362Z,93.01
2017-08-13T05:20:19.361Z,92.82
2017-08-13T05:22:47.689Z,92.63
2017-08-13T05:25:16.525Z,92.63
2017-08-13T05:27:44.877Z,92.59
2017-08-13T05:30:13.234Z,92.27
2017-08-13T05:32:41.577Z,92.25
2017-08-13T05:35:09.916Z,92.34
2017-08-13T05:37:39.023Z,92.08
2017-08-13T05:40:07.373Z,91.89
2017-08-13T05:42:36.111Z,92.08
2017-08-13T05:45:04.456Z,92.37
2017-08-13T05:47:32.787Z,93.17
2017-08-13T05:50:01.223Z,92.86
2017-08-13T05:52:29.579Z,92.30
2017-08-13T05:54:57.936Z,91.64
2017-08-13T05:57:26.293Z,92.30
2017-08-13T05:59:54.913Z,92.18
2017-08-13T06:02:23.246Z,91.93
2017-08-13T06:04:51.598Z,91.41
2017-08-13T06:07:19.978Z,91.05
2017-08-13T06:09:48.342Z,91.59
2017-08-13T06:12:16.709Z,91.52
2017-08-13T06:14:45.052Z,91.61
2017-08-13T06:17:13.481Z,91.73
2017-08-13T06:19:41.824Z,92.06
2017-08-13T06:22:10.190Z,91.88
2017-08-13T06:24:38.528Z,91.82
2017-08-13T06:27:06.864Z,91.82
2017-08-13T06:29:35.232Z,91.76
2017-08-13T06:32:03.573Z,91.62
2017-08-13T06:34:33.005Z,91.17
2017-08-13T06:37:01.389Z,91.20
2017-08-13T06:39:29.725Z,90.78
2017-08-13T06:41:58.078Z,91.50
2017-08-13T06:44:26.421Z,91.64
2017-08-13T06:46:54.780Z,92.18
2017-08-13T06:49:23.883Z,91.68
2017-08-13T06:51:52.510Z,91.41
2017-08-13T06:54:20.826Z,91.29
2017-08-13T06:56:49.161Z,91.65
2017-08-13T06:59:17.941Z,90.87
2017-08-13T07:01:46.255Z,91.26
2017-08-13T07:04:14.608Z,91.15
2017-08-13T07:06:42.954Z,90.42
2017-08-13T07:09:11.307Z,89.49
2017-08-13T07:11:39.656Z,88.94
2017-08-13T07:14:08.105Z,89.22
2017-08-13T07:16:36.449Z,89.31
2017-08-13T07:19:04.782Z,88.73
2017-08-13T07:21:33.154Z,88.73
2017-08-13T07:24:01.498Z,88.98
2017-08-13T07:26:30.113Z,89.08
2017-08-13T07:28:58.437Z,88.76
2017-08-13T07:31:27.177Z,88.04
2017-08-13T07:33:55.588Z,87.88
2017-08-13T07:36:23.920Z,86.90
2017-08-13T07:38:53.042Z,87.08
2017-08-13T07:41:21.378Z,87.16
2017-08-13T07:43:50.168Z,86.64
2017-08-13T07:46:18.508Z,85.62
2017-08-13T07:48:46.826Z,84.53
2017-08-13T07:51:15.165Z,84.06
2017-08-13T07:53:43.728Z,82.91
2017-08-13T07:56:12.607Z,82.10
2017-08-13T07:58:40.953Z,81.94
2017-08-13T08:01:09.278Z,81.29
2017-08-13T08:03:37.630Z,82.48
2017-08-13T08:06:05.963Z,82.68
2017-08-13T08:08:34.300Z,80.92
2017-08-13T08:11:02.656Z,76.95
2017-08-13T08:13:31.365Z,77.83
2017-08-13T08:15:59.695Z,78.57
2017-08-13T08:18:28.038Z,77.89
2017-08-13T08:20:56.407Z,78.70
2017-08-13T08:23:24.747Z,76.73
2017-08-13T08:25:53.099Z,77.96
2017-08-13T08:28:21.421Z,76.36
2017-08-13T08:30:50.060Z,77.21
2017-08-13T08:33:18.411Z,76.30
2017-08-13T08:35:47.247Z,77.03
2017-08-13T08:38:15.611Z,77.72
2017-08-13T08:40:43.967Z,74.65
2017-08-13T08:43:12.321Z,74.67
2017-08-13T08:45:40.651Z,72.33
2017-08-13T08:48:09.242Z,73.23
2017-08-13T08:50:37.565Z,69.86
2017-08-13T08:53:05.900Z,71.10
2017-08-13T08:55:34.264Z,72.08
2017-08-13T08:58:02.605Z,71.80
2017-08-13T09:00:30.983Z,73.09
2017-08-13T09:02:59.330Z,73.91
2017-08-13T09:05:28.156Z,74.17
2017-08-13T09:07:56.491Z,73.73
2017-08-13T09:10:24.805Z,71.70
2017-08-13T09:12:53.145Z,72.77
2017-08-13T09:15:21.531Z,69.80
2017-08-13T09:17:50.510Z,71.50
2017-08-13T09:20:19.410Z,72.63
2017-08-13T09:22:48.979Z,72.39
2017-08-13T09:25:17.777Z,70.83
2017-08-13T09:27:46.613Z,70.73
2017-08-13T09:30:15.686Z,69.97
2017-08-13T09:32:44.665Z,67.96
2017-08-13T09:35:13.596Z,69.78
2017-08-13T09:37:41.932Z,70.53
2017-08-13T09:40:10.283Z,67.87
2017-08-13T09:42:38.638Z,67.08
2017-08-13T09:45:06.964Z,67.75
2017-08-13T09:47:35.312Z,65.83
2017-08-13T09:50:03.657Z,68.76
2017-08-13T09:52:32.002Z,69.12
2017-08-13T09:55:00.352Z,67.19
2017-08-13T09:57:28.704Z,68.00
2017-08-13T09:59:57.761Z,67.79
2017-08-13T10:02:26.107Z,67.04
2017-08-13T10:04:54.477Z,70.24
2017-08-13T10:07:22.792Z,67.54
2017-08-13T10:09:51.907Z,67.65
2017-08-13T10:12:20.231Z,69.03
2017-08-13T10:14:48.955Z,69.00
2017-08-13T10:17:17.373Z,69.77
2017-08-13T10:19:45.723Z,68.76
2017-08-13T10:22:14.065Z,68.78
2017-08-13T10:24:42.398Z,68.73
2017-08-13T10:27:10.748Z,68.34
2017-08-13T10:29:39.844Z,68.12
2017-08-13T10:32:08.550Z,65.63
2017-08-13T10:34:36.905Z,68.61
2017-08-13T10:37:05.255Z,67.42
2017-08-13T10:39:33.632Z,67.03
2017-08-13T10:42:01.966Z,67.31
2017-08-13T10:44:30.332Z,67.50
2017-08-13T10:46:59.471Z,66.65
2017-08-13T10:49:27.836Z,69.81
2017-08-13T10:51:56.205Z,69.60
2017-08-13T10:54:24.549Z,68.66
2017-08-13T10:56:52.910Z,67.11
2017-08-13T10:59:21.322Z,66.51
2017-08-13T11:01:49.680Z,66.46
2017-08-13T11:04:18.031Z,66.22
2017-08-13T11:06:46.415Z,64.70
2017-08-13T11:09:15.503Z,63.92
2017-08-13T11:11:43.835Z,64.12
2017-08-13T11:14:12.167Z,63.39
2017-08-13T11:16:40.487Z,63.90
2017-08-13T11:19:08.844Z,63.30
2017-08-13T11:21:37.206Z,63.66
2017-08-13T11:24:05.529Z,61.76
2017-08-13T11:26:33.889Z,62.56
2017-08-13T11:29:02.219Z,64.02
2017-08-13T11:31:30.554Z,63.20
2017-08-13T11:33:58.891Z,62.84
2017-08-13T11:36:27.228Z,64.26
2017-08-13T11:38:55.620Z,64.05
2017-08-13T11:41:24.733Z,64.98
2017-08-13T11:43:53.086Z,63.35
2017-08-13T11:46:22.295Z,65.35
2017-08-13T11:48:51.413Z,63.32
2017-08-13T11:51:19.791Z,63.30
2017-08-13T11:53:48.400Z,64.25
2017-08-13T11:56:16.748Z,63.91
2017-08-13T11:58:45.125Z,64.16
2017-08-13T12:01:13.485Z,65.39
2017-08-13T12:03:42.583Z,61.65
2017-08-13T12:06:11.006Z,61.89
2017-08-13T12:08:39.337Z,60.75
2017-08-13T12:11:08.044Z,60.65
2017-08-13T12:13:36.405Z,61.24
2017-08-13T12:16:04.735Z,60.23
2017-08-13T12:18:33.082Z,61.51
2017-08-13T12:21:02.751Z,62.30
2017-08-13T12:23:31.103Z,62.20
2017-08-13T12:25:59.419Z,62.31
2017-08-13T12:28:28.242Z,60.33
2017-08-13T12:30:56.582Z,60.28
2017-08-13T12:33:24.915Z,60.67
2017-08-13T12:35:53.263Z,61.22
2017-08-13T12:38:21.589Z,58.79
2017-08-13T12:40:50.770Z,61.81
2017-08-13T12:43:19.095Z,61.60
2017-08-13T12:45:47.840Z,60.20
2017-08-13T12:48:16.167Z,58.33
2017-08-13T12:50:44.524Z,58.42
2017-08-13T12:53:12.877Z,58.51
2017-08-13T12:55:41.222Z,58.11
2017-08-13T12:58:09.585Z,57.02
2017-08-13T13:00:37.909Z,56.59
2017-08-13T13:03:06.535Z,57.51
2017-08-13T13:05:34.881Z,55.16
2017-08-13T13:08:03.243Z,56.79
2017-08-13T13:10:31.590Z,58.17
2017-08-13T13:12:59.929Z,57.31
2017-08-13T13:15:28.334Z,57.70
2017-08-13T13:17:56.722Z,58.72
2017-08-13T13:20:25.049Z,57.64
2017-08-13T13:22:53.406Z,56.58
2017-08-13T13:25:22.520Z,57.18
2017-08-13T13:27:50.849Z,56.67
2017-08-13T13:30:19.212Z,58.50
2017-08-13T13:32:47.559Z,59.33
2017-08-13T13:35:15.927Z,57.41
2017-08-13T13:37:45.040Z,55.93
2017-08-13T13:40:13.674Z,57.77
2017-08-13T13:42:42.027Z,54.99
2017-08-13T13:45:10.355Z,57.21
2017-08-13T13:47:38.727Z,56.28
2017-08-13T13:50:07.871Z,55.14
2017-08-13T13:52:36.213Z,58.05
2017-08-13T13:55:04.552Z,55.06
2017-08-13T13:57:33.512Z,54.64
2017-08-13T14:00:02.664Z,53.51
2017-08-13T14:02:31.002Z,53.14
2017-08-13T14:04:59.367Z,52.62
2017-08-13T14:07:27.679Z,54.15
2017-08-13T14:09:56.437Z,54.43
2017-08-13T14:12:24.762Z,54.34
2017-08-13T14:14:53.116Z,54.28
2017-08-13T14:17:21.456Z,52.67
2017-08-13T14:19:49.887Z,53.22
2017-08-13T14:22:18.470Z,55.53
2017-08-13T14:24:46.799Z,58.19
2017-08-13T14:27:15.142Z,57.01
2017-08-13T14:29:43.509Z,54.96
2017-08-13T14:32:11.826Z,52.98
2017-08-13T14:34:40.576Z,54.87
2017-08-13T14:37:08.893Z,56.17
2017-08-13T14:39:37.215Z,57.88
2017-08-13T14:42:05.554Z,55.94
2017-08-13T14:44:33.889Z,54.37
2017-08-13T14:47:02.753Z,55.27
2017-08-13T14:49:31.071Z,50.97
2017-08-13T14:51:59.407Z,50.12
2017-08-13T14:54:28.521Z,47.82
2017-08-13T14:56:56.854Z,51.01
2017-08-13T14:59:25.216Z,48.65
2017-08-13T15:01:53.570Z,45.75
2017-08-13T15:04:21.999Z,46.58
2017-08-13T15:06:50.359Z,46.02
2017-08-13T15:09:18.702Z,44.35
2017-08-13T15:11:47.041Z,45.07
2017-08-13T15:14:15.395Z,46.45
2017-08-13T15:16:43.715Z,44.11
2017-08-13T15:19:12.377Z,42.02
2017-08-13T15:21:40.711Z,41.83
2017-08-13T15:24:09.041Z,41.53
2017-08-13T15:26:37.421Z,43.75
2017-08-13T15:29:05.765Z,41.61
2017-08-13T15:31:34.138Z,42.35
2017-08-13T15:34:02.479Z,40.43
2017-08-13T15:36:31.597Z,42.26
2017-08-13T15:38:59.940Z,41.42
2017-08-13T15:41:28.282Z,39.81
2017-08-13T15:43:56.649Z,38.67
2017-08-13T15:46:24.995Z,38.99
2017-08-13T15:48:54.068Z,41.98
2017-08-13T15:51:22.585Z,38.38
2017-08-13T15:53:50.971Z,38.69
2017-08-13T15:56:19.895Z,37.96
2017-08-13T15:58:48.224Z,38.60
2017-08-13T16:01:16.545Z,41.73
2017-08-13T16:03:44.914Z,41.95
2017-08-13T16:06:13.252Z,41.16
2017-08-13T16:08:42.678Z,44.48
2017-08-13T16:11:11.008Z,42.65
2017-08-13T16:13:39.337Z,42.16
2017-08-13T16:16:07.689Z,42.17
2017-08-13T16:18:36.034Z,42.01
2017-08-13T16:21:04.674Z,41.88
2017-08-13T16:23:33.447Z,41.51
2017-08-13T16:26:01.762Z,42.24
2017-08-13T16:28:30.121Z,47.14
2017-08-13T16:30:58.473Z,45.39
2017-08-13T16:33:27.097Z,43.90
2017-08-13T16:35:55.544Z,43.90
2017-08-13T16:38:23.870Z,43.86
2017-08-13T16:40:52.203Z,46.55
2017-08-13T16:43:20.531Z,46.37
2017-08-13T16:45:48.883Z,44.79
2017-08-13T16:48:17.979Z,45.42
2017-08-13T16:50:46.350Z,46.08
2017-08-13T16:53:14.708Z,45.28
2017-08-13T16:55:43.030Z,46.58
2017-08-13T16:58:11.412Z,48.53
2017-08-13T17:00:39.749Z,49.14
2017-08-13T17:03:08.103Z,50.57
2017-08-13T17:05:36.441Z,50.85
2017-08-13T17:08:04.851Z,51.88
2017-08-13T17:10:33.208Z,52.43
2017-08-13T17:13:01.554Z,51.97
2017-08-13T17:15:29.905Z,53.08
2017-08-13T17:17:58.287Z,53.94
2017-08-13T17:20:26.648Z,53.89
2017-08-13T17:22:54.973Z,54.51
2017-08-13T17:25:23.353Z,55.28
2017-08-13T17:27:51.798Z,55.65
2017-08-13T17:30:20.130Z,56.54
2017-08-13T17:32:48.488Z,58.00
2017-08-13T17:35:16.808Z,59.28
2017-08-13T17:37:45.178Z,61.96
2017-08-13T17:40:13.585Z,62.66
2017-08-13T17:42:41.959Z,63.40
2017-08-13T17:45:10.327Z,64.55
2017-08-13T17:47:38.656Z,65.79
2017-08-13T17:50:07.020Z,66.09
2017-08-13T17:52:35.359Z,65.80
2017-08-13T17:55:04.276Z,65.59
2017-08-13T17:57:32.614Z,65.84
2017-08-13T18:00:00.971Z,66.58
2017-08-13T18:02:29.329Z,66.48
2017-08-13T18:04:58.224Z,66.50
2017-08-13T18:07:26.566Z,66.80
2017-08-13T18:09:54.918Z,67.36
2017-08-13T18:12:23.842Z,67.88
2017-08-13T18:14:52.220Z,68.13
2017-08-13T18:17:20.608Z,68.06
2017-08-13T18:19:48.965Z,68.07
2017-08-13T18:22:17.315Z,68.00
2017-08-13T18:24:45.670Z,68.37
2017-08-13T18:27:14.009Z,68.52
2017-08-13T18:29:42.372Z,68.48
2017-08-13T18:32:11.487Z,68.74
2017-08-13T18:34:39.827Z,69.25
2017-08-13T18:37:09.120Z,68.62
2017-08-13T18:39:37.470Z,68.94
2017-08-13T18:42:05.822Z,70.51
2017-08-13T18:44:34.925Z,70.90
2017-08-13T18:47:04.268Z,71.46
2017-08-13T18:49:32.606Z,71.90
2017-08-13T18:52:00.960Z,72.00
2017-08-13T18:54:29.333Z,72.68
2017-08-13T18:56:57.688Z,72.61
2017-08-13T18:59:26.050Z,73.23
2017-08-13T19:01:55.008Z,73.18
2017-08-13T19:04:24.157Z,74.08
2017-08-13T19:06:52.510Z,73.92
2017-08-13T19:09:20.839Z,74.65
2017-08-13T19:11:49.189Z,75.19
2017-08-13T19:14:17.528Z,75.32
2017-08-13T19:16:46.923Z,74.94
2017-08-13T19:19:15.259Z,75.44
2017-08-13T19:21:43.581Z,76.35
2017-08-13T19:24:12.719Z,75.87
2017-08-13T19:26:41.047Z,76.11
2017-08-13T19:29:09.761Z,76.56
2017-08-13T19:31:38.087Z,75.89
2017-08-13T19:34:07.461Z,76.10
2017-08-13T19:36:35.829Z,75.81
2017-08-13T19:39:05.057Z,77.21
2017-08-13T19:41:33.416Z,76.65
2017-08-13T19:44:01.781Z,77.44
2017-08-13T19:46:30.429Z,78.54
2017-08-13T19:48:59.916Z,78.96
2017-08-13T19:51:28.272Z,79.45
2017-08-13T19:53:56.626Z,78.80
2017-08-13T19:56:24.954Z,78.64
2017-08-13T19:58:53.317Z,79.39
2017-08-13T20:01:21.667Z,79.71
2017-08-13T20:03:50.422Z,79.78
2017-08-13T20:06:18.767Z,80.40
2017-08-13T20:08:48.040Z,79.89
2017-08-13T20:11:16.398Z,79.92
2017-08-13T20:13:45.507Z,80.69
2017-08-13T20:16:13.874Z,80.00
2017-08-13T20:18:42.205Z,80.03
2017-08-13T20:21:10.564Z,81.16
2017-08-13T20:23:39.856Z,81.34
2017-08-13T20:26:08.258Z,80.67
2017-08-13T20:28:36.646Z,81.21
2017-08-13T20:31:04.988Z,81.82
2017-08-13T20:33:34.129Z,81.52
2017-08-13T20:36:02.491Z,81.53
2017-08-13T20:38:31.205Z,82.13
2017-08-13T20:40:59.565Z,80.85
2017-08-13T20:43:27.892Z,80.95
2017-08-13T20:45:56.271Z,81.20
2017-08-13T20:48:24.731Z,82.33
2017-08-13T20:50:53.085Z,83.10
2017-08-13T20:53:21.413Z,82.48
2017-08-13T20:55:49.756Z,81.25
2017-08-13T20:58:18.093Z,81.92
2017-08-13T21:00:47.205Z,81.75
2017-08-13T21:03:15.554Z,81.63
2017-08-13T21:05:43.916Z,81.31
2017-08-13T21:08:12.261Z,81.51
2017-08-13T21:10:40.590Z,82.58
2017-08-13T21:13:08.920Z,83.35
2017-08-13T21:15:37.700Z,82.31
2017-08-13T21:18:06.027Z,81.71
2017-08-13T21:20:34.377Z,82.17
2017-08-13T21:23:02.723Z,82.74
2017-08-13T21:25:31.350Z,81.95
2017-08-13T21:27:59.682Z,82.52
2017-08-13T21:30:28.020Z,82.42
2017-08-13T21:32:56.389Z,82.69
2017-08-13T21:35:24.725Z,82.95
2017-08-13T21:37:53.095Z,83.58
2017-08-13T21:40:22.174Z,83.72
2017-08-13T21:42:50.516Z,84.48
2017-08-13T21:45:18.873Z,84.47
2017-08-13T21:47:47.213Z,84.04
2017-08-13T21:50:15.937Z,84.54
2017-08-13T21:52:44.273Z,83.74
2017-08-13T21:55:13.396Z,83.14
2017-08-13T21:57:41.906Z,83.63
2017-08-13T22:00:10.343Z,83.87
2017-08-13T22:02:38.698Z,84.04
2017-08-13T22:05:07.732Z,84.42
2017-08-13T22:07:36.887Z,85.14
2017-08-13T22:10:05.207Z,84.76
2017-08-13T22:12:33.637Z,83.91
2017-08-13T22:15:01.969Z,83.57
2017-08-13T22:17:30.356Z,84.95
2017-08-13T22:19:58.695Z,84.99
2017-08-13T22:22:27.044Z,84.18
2017-08-13T22:24:55.409Z,84.66
2017-08-13T22:27:23.736Z,85.62
2017-08-13T22:29:52.106Z,85.35
2017-08-13T22:32:20.443Z,84.44
2017-08-13T22:34:48.801Z,84.32
2017-08-13T22:37:17.172Z,84.70
2017-08-13T22:39:45.507Z,84.38
2017-08-13T22:42:13.857Z,85.11
2017-08-13T22:44:42.247Z,85.98
2017-08-13T22:47:10.913Z,85.74
2017-08-13T22:49:39.248Z,84.95
2017-08-13T22:52:07.613Z,84.80
2017-08-13T22:54:35.974Z,84.92
2017-08-13T22:57:04.304Z,83.99
2017-08-13T22:59:32.645Z,84.55
2017-08-13T23:02:00.974Z,84.67
2017-08-13T23:04:29.558Z,84.45
2017-08-13T23:06:57.871Z,85.09
2017-08-13T23:09:26.267Z,85.49
2017-08-13T23:11:54.608Z,85.47
2017-08-13T23:14:23.699Z,86.10
2017-08-13T23:16:52.155Z,85.64
2017-08-13T23:19:20.501Z,85.10
2017-08-13T23:21:50.243Z,84.97
2017-08-13T23:24:18.752Z,85.46
2017-08-13T23:26:47.095Z,86.07
2017-08-13T23:29:15.528Z,86.34
2017-08-13T23:31:43.855Z,86.14
2017-08-13T23:34:12.575Z,86.63
2017-08-13T23:36:40.896Z,87.09
2017-08-13T23:39:09.223Z,86.75
2017-08-13T23:41:37.569Z,86.83
2017-08-13T23:44:05.878Z,86.23
2017-08-13T23:46:34.217Z,86.85
2017-08-13T23:49:02.536Z,87.14
2017-08-13T23:51:31.243Z,86.73
2017-08-13T23:53:59.578Z,86.33
2017-08-13T23:56:27.908Z,86.78
2017-08-13T23:58:57.018Z,85.87
